sensor_id;sensor_type;location;lat;lon;timestamp;pressure;altitude;pressure_sealevel;temperature;humidity
15442;BME280;7821;48.818;9.798;2022-09-20T00:00:09;75788.56;;;-140.16;100.00
15442;BME280;7821;48.818;9.798;2022-09-20T00:02:36;75784.63;;;-140.16;100.00
15442;BME280;7821;48.818;9.798;2022-09-20T00:05:03;75790.53;;;-140.16;100.00
15442;BME280;7821;48.818;9.798;2022-09-20T00:07:29;75782.66;;;-140.16;100.00
15442;BME280;7821;48.818;9.798;2022-09-20T00:09:56;75790.53;;;-140.16;100.00
15442;BME280;7821;48.818;9.798;2022-09-20T00:12:23;75786.59;;;-140.16;100.00
15442;BME280;7821;48.818;9.798;2022-09-20T00:14:49;75782.66;;;-140.16;100.00
15442;BME280;7821;48.818;9.798;2022-09-20T00:17:15;75794.47;;;-140.16;100.00
15442;BME280;7821;48.818;9.798;2022-09-20T00:19:42;75800.41;;;-140.16;100.00
15442;BME280;7821;48.818;9.798;2022-09-20T00:22:08;75796.44;;;-140.16;100.00
15442;BME280;7821;48.818;9.798;2022-09-20T00:24:35;75796.44;;;-140.16;100.00
15442;BME280;7821;48.818;9.798;2022-09-20T00:27:02;75796.44;;;-140.16;100.00
15442;BME280;7821;48.818;9.798;2022-09-20T00:29:29;75792.50;;;-140.16;100.00
15442;BME280;7821;48.818;9.798;2022-09-20T00:31:55;75798.44;;;-140.16;100.00
15442;BME280;7821;48.818;9.798;2022-09-20T00:34:22;75798.44;;;-140.16;100.00
15442;BME280;7821;48.818;9.798;2022-09-20T00:37:07;75800.41;;;-140.16;100.00
15442;BME280;7821;48.818;9.798;2022-09-20T00:39:33;75804.34;;;-140.16;100.00
15442;BME280;7821;48.818;9.798;2022-09-20T00:42:00;75812.22;;;-140.16;100.00
15442;BME280;7821;48.818;9.798;2022-09-20T00:47:56;75812.22;;;-140.16;100.00
15442;BME280;7821;48.818;9.798;2022-09-20T00:52:32;75820.13;;;-140.16;100.00
15442;BME280;7821;48.818;9.798;2022-09-20T00:54:59;75822.09;;;-140.16;100.00
15442;BME280;7821;48.818;9.798;2022-09-20T00:57:26;75816.16;;;-140.16;100.00
15442;BME280;7821;48.818;9.798;2022-09-20T00:59:53;75820.13;;;-140.16;100.00
15442;BME280;7821;48.818;9.798;2022-09-20T01:02:24;75826.03;;;-140.16;100.00
15442;BME280;7821;48.818;9.798;2022-09-20T01:04:52;75820.13;;;-140.16;100.00
15442;BME280;7821;48.818;9.798;2022-09-20T01:07:20;75812.22;;;-140.16;100.00
15442;BME280;7821;48.818;9.798;2022-09-20T01:09:50;75814.19;;;-140.16;100.00
15442;BME280;7821;48.818;9.798;2022-09-20T01:12:18;75818.16;;;-140.16;100.00
15442;BME280;7821;48.818;9.798;2022-09-20T01:14:45;75812.22;;;-140.16;100.00
15442;BME280;7821;48.818;9.798;2022-09-20T01:17:13;75812.22;;;-140.16;100.00
15442;BME280;7821;48.818;9.798;2022-09-20T01:23:13;75816.16;;;-140.16;100.00
15442;BME280;7821;48.818;9.798;2022-09-20T01:25:16;75812.22;;;-140.16;100.00
15442;BME280;7821;48.818;9.798;2022-09-20T01:27:51;75810.25;;;-140.16;100.00
15442;BME280;7821;48.818;9.798;2022-09-20T01:30:31;75816.16;;;-140.16;100.00
15442;BME280;7821;48.818;9.798;2022-09-20T01:35:47;75812.22;;;-140.16;100.00
15442;BME280;7821;48.818;9.798;2022-09-20T01:38:24;75808.28;;;-140.16;100.00
15442;BME280;7821;48.818;9.798;2022-09-20T01:43:26;75804.34;;;-140.16;100.00
15442;BME280;7821;48.818;9.798;2022-09-20T01:45:55;75802.38;;;-140.16;100.00
15442;BME280;7821;48.818;9.798;2022-09-20T01:48:46;75804.34;;;-140.16;100.00
15442;BME280;7821;48.818;9.798;2022-09-20T02:12:20;75792.50;;;-140.16;100.00
15442;BME280;7821;48.818;9.798;2022-09-20T02:17:54;75802.38;;;-140.16;100.00
15442;BME280;7821;48.818;9.798;2022-09-20T02:31:15;75794.47;;;-140.16;100.00
15442;BME280;7821;48.818;9.798;2022-09-20T02:36:20;75788.56;;;-140.16;100.00
15442;BME280;7821;48.818;9.798;2022-09-20T02:44:08;75792.50;;;-140.16;100.00
15442;BME280;7821;48.818;9.798;2022-09-20T02:46:41;75792.50;;;-140.16;100.00
15442;BME280;7821;48.818;9.798;2022-09-20T02:51:57;75786.59;;;-140.16;100.00
15442;BME280;7821;48.818;9.798;2022-09-20T02:55:31;75792.50;;;-140.16;100.00
15442;BME280;7821;48.818;9.798;2022-09-20T02:57:41;75798.44;;;-140.16;100.00
15442;BME280;7821;48.818;9.798;2022-09-20T03:00:12;75796.44;;;-140.16;100.00
15442;BME280;7821;48.818;9.798;2022-09-20T03:02:59;75800.41;;;-140.16;100.00
15442;BME280;7821;48.818;9.798;2022-09-20T03:05:30;75806.31;;;-140.16;100.00
15442;BME280;7821;48.818;9.798;2022-09-20T03:08:19;75810.25;;;-140.16;100.00
15442;BME280;7821;48.818;9.798;2022-09-20T03:10:56;75824.06;;;-140.16;100.00
15442;BME280;7821;48.818;9.798;2022-09-20T03:24:13;75808.28;;;-140.16;100.00
15442;BME280;7821;48.818;9.798;2022-09-20T03:26:56;75810.25;;;-140.16;100.00
15442;BME280;7821;48.818;9.798;2022-09-20T03:29:31;75812.22;;;-140.16;100.00
15442;BME280;7821;48.818;9.798;2022-09-20T03:38:13;75806.31;;;-140.16;100.00
15442;BME280;7821;48.818;9.798;2022-09-20T03:40:24;75814.19;;;-140.16;100.00
15442;BME280;7821;48.818;9.798;2022-09-20T03:42:53;75808.28;;;-140.16;100.00
15442;BME280;7821;48.818;9.798;2022-09-20T03:50:30;75822.09;;;-140.16;100.00
15442;BME280;7821;48.818;9.798;2022-09-20T03:53:17;75822.09;;;-140.16;100.00
15442;BME280;7821;48.818;9.798;2022-09-20T04:04:31;75835.88;;;-140.16;100.00
15442;BME280;7821;48.818;9.798;2022-09-20T04:07:08;75837.88;;;-140.16;100.00
15442;BME280;7821;48.818;9.798;2022-09-20T04:09:59;75845.75;;;-140.16;100.00
15442;BME280;7821;48.818;9.798;2022-09-20T04:15:22;75853.63;;;-140.16;100.00
15442;BME280;7821;48.818;9.798;2022-09-20T04:25:46;75861.53;;;-140.16;100.00
15442;BME280;7821;48.818;9.798;2022-09-20T04:28:18;75871.38;;;-140.16;100.00
15442;BME280;7821;48.818;9.798;2022-09-20T04:30:46;75877.31;;;-140.16;100.00
15442;BME280;7821;48.818;9.798;2022-09-20T04:33:17;75881.25;;;-140.16;100.00
15442;BME280;7821;48.818;9.798;2022-09-20T04:38:37;75887.16;;;-140.16;100.00
15442;BME280;7821;48.818;9.798;2022-09-20T04:51:57;75865.47;;;-140.16;100.00
15442;BME280;7821;48.818;9.798;2022-09-20T05:00:09;75883.22;;;-140.16;100.00
15442;BME280;7821;48.818;9.798;2022-09-20T05:07:58;75904.91;;;-140.16;100.00
15442;BME280;7821;48.818;9.798;2022-09-20T05:13:14;75912.78;;;-140.16;100.00
15442;BME280;7821;48.818;9.798;2022-09-20T05:28:55;75914.78;;;-140.16;100.00
15442;BME280;7821;48.818;9.798;2022-09-20T05:33:56;75908.84;;;-140.16;100.00
15442;BME280;7821;48.818;9.798;2022-09-20T05:36:35;75914.78;;;-140.16;100.00
15442;BME280;7821;48.818;9.798;2022-09-20T05:55:02;75918.72;;;-140.16;100.00
15442;BME280;7821;48.818;9.798;2022-09-20T06:00:09;75912.78;;;-140.16;100.00
15442;BME280;7821;48.818;9.798;2022-09-20T06:02:52;75912.78;;;-140.16;100.00
15442;BME280;7821;48.818;9.798;2022-09-20T06:05:45;75902.94;;;-140.16;100.00
15442;BME280;7821;48.818;9.798;2022-09-20T06:16:05;75914.78;;;-140.16;100.00
15442;BME280;7821;48.818;9.798;2022-09-20T06:21:12;75914.78;;;-140.16;100.00
15442;BME280;7821;48.818;9.798;2022-09-20T06:23:41;75920.69;;;-140.16;100.00
15442;BME280;7821;48.818;9.798;2022-09-20T06:26:21;75922.66;;;-140.16;100.00
15442;BME280;7821;48.818;9.798;2022-09-20T06:28:51;75912.78;;;-140.16;100.00
15442;BME280;7821;48.818;9.798;2022-09-20T06:31:23;75910.81;;;-140.16;100.00
15442;BME280;7821;48.818;9.798;2022-09-20T06:33:53;75910.81;;;-140.16;100.00
15442;BME280;7821;48.818;9.798;2022-09-20T06:36:22;75902.94;;;-140.16;100.00
15442;BME280;7821;48.818;9.798;2022-09-20T06:41:58;75883.22;;;-140.16;100.00
15442;BME280;7821;48.818;9.798;2022-09-20T06:44:25;75867.44;;;-140.16;100.00
15442;BME280;7821;48.818;9.798;2022-09-20T06:46:51;75849.69;;;-140.16;100.00
15442;BME280;7821;48.818;9.798;2022-09-20T06:49:19;75843.78;;;-140.16;100.00
15442;BME280;7821;48.818;9.798;2022-09-20T06:51:46;75812.22;;;-140.16;100.00
15442;BME280;7821;48.818;9.798;2022-09-20T06:54:19;75806.31;;;-140.16;100.00
15442;BME280;7821;48.818;9.798;2022-09-20T06:56:46;75802.38;;;-140.16;100.00
15442;BME280;7821;48.818;9.798;2022-09-20T06:59:15;75790.53;;;-140.16;100.00
15442;BME280;7821;48.818;9.798;2022-09-20T07:01:42;75774.75;;;-140.16;100.00
15442;BME280;7821;48.818;9.798;2022-09-20T07:04:08;75762.94;;;-140.16;100.00
15442;BME280;7821;48.818;9.798;2022-09-20T07:06:35;75745.19;;;-140.16;100.00
15442;BME280;7821;48.818;9.798;2022-09-20T07:09:02;75741.25;;;-140.16;100.00
15442;BME280;7821;48.818;9.798;2022-09-20T07:11:28;75764.91;;;-140.16;100.00
15442;BME280;7821;48.818;9.798;2022-09-20T07:13:59;75764.91;;;-140.16;100.00
15442;BME280;7821;48.818;9.798;2022-09-20T07:16:25;75770.81;;;-140.16;100.00
15442;BME280;7821;48.818;9.798;2022-09-20T07:18:52;75749.13;;;-140.16;100.00
15442;BME280;7821;48.818;9.798;2022-09-20T07:21:19;75755.03;;;-140.16;100.00
15442;BME280;7821;48.818;9.798;2022-09-20T07:23:46;75729.41;;;-140.16;98.62
15442;BME280;7821;48.818;9.798;2022-09-20T07:26:24;75648.56;;;-140.16;95.88
15442;BME280;7821;48.818;9.798;2022-09-20T07:28:51;75603.22;;;-140.16;92.47
15442;BME280;7821;48.818;9.798;2022-09-20T07:31:19;75595.31;;;-140.16;85.22
15442;BME280;7821;48.818;9.798;2022-09-20T07:33:45;75555.88;;;-140.16;84.67
15442;BME280;7821;48.818;9.798;2022-09-20T07:36:12;75540.13;;;-140.16;83.23
15442;BME280;7821;48.818;9.798;2022-09-20T07:38:39;75561.81;;;-140.16;85.39
15442;BME280;7821;48.818;9.798;2022-09-20T07:41:07;75577.56;;;-140.16;87.02
15442;BME280;7821;48.818;9.798;2022-09-20T07:43:34;75581.53;;;-140.16;86.46
15442;BME280;7821;48.818;9.798;2022-09-20T07:46:00;75589.41;;;-140.16;84.21
15442;BME280;7821;48.818;9.798;2022-09-20T07:48:32;75599.25;;;-140.16;83.26
15442;BME280;7821;48.818;9.798;2022-09-20T07:51:03;75605.19;;;-140.16;83.21
15442;BME280;7821;48.818;9.798;2022-09-20T07:53:33;75605.19;;;-140.16;84.01
15442;BME280;7821;48.818;9.798;2022-09-20T07:56:01;75605.19;;;-140.16;84.13
15442;BME280;7821;48.818;9.798;2022-09-20T07:58:28;75624.91;;;-140.16;86.75
15442;BME280;7821;48.818;9.798;2022-09-20T08:00:56;75611.09;;;-140.16;86.29
15442;BME280;7821;48.818;9.798;2022-09-20T08:03:23;75591.38;;;-140.16;83.47
15442;BME280;7821;48.818;9.798;2022-09-20T08:05:50;75611.09;;;-140.16;80.74
15442;BME280;7821;48.818;9.798;2022-09-20T08:08:18;75636.72;;;-140.16;85.96
15442;BME280;7821;48.818;9.798;2022-09-20T08:10:45;75670.25;;;-140.16;84.46
15442;BME280;7821;48.818;9.798;2022-09-20T08:13:12;75693.91;;;-140.16;82.74
15442;BME280;7821;48.818;9.798;2022-09-20T08:16:02;75727.44;;;-140.16;84.31
15442;BME280;7821;48.818;9.798;2022-09-20T08:18:29;75735.31;;;-140.16;85.01
15442;BME280;7821;48.818;9.798;2022-09-20T08:20:56;75733.34;;;-140.16;86.54
15442;BME280;7821;48.818;9.798;2022-09-20T08:23:28;75697.84;;;-140.16;87.10
15442;BME280;7821;48.818;9.798;2022-09-20T08:25:55;75650.53;;;-140.16;81.55
15442;BME280;7821;48.818;9.798;2022-09-20T08:28:22;75613.06;;;-140.16;82.00
15442;BME280;7821;48.818;9.798;2022-09-20T08:30:48;75611.09;;;-140.16;81.22
15442;BME280;7821;48.818;9.798;2022-09-20T08:33:15;75632.78;;;-140.16;79.91
15442;BME280;7821;48.818;9.798;2022-09-20T08:35:41;75654.47;;;-140.16;78.89
15442;BME280;7821;48.818;9.798;2022-09-20T08:38:07;75678.13;;;-140.16;77.84
15442;BME280;7821;48.818;9.798;2022-09-20T08:40:58;75717.56;;;-140.16;73.74
15442;BME280;7821;48.818;9.798;2022-09-20T08:43:28;75729.41;;;-140.16;76.11
15442;BME280;7821;48.818;9.798;2022-09-20T08:45:57;75717.56;;;-140.16;77.60
15442;BME280;7821;48.818;9.798;2022-09-20T08:48:31;75686.03;;;-140.16;76.52
15442;BME280;7821;48.818;9.798;2022-09-20T08:51:00;75656.44;;;-140.16;75.61
15442;BME280;7821;48.818;9.798;2022-09-20T08:53:31;75605.19;;;-140.16;74.11
15442;BME280;7821;48.818;9.798;2022-09-20T08:55:58;75557.84;;;-140.16;69.69
15442;BME280;7821;48.818;9.798;2022-09-20T08:58:25;75512.50;;;-140.16;68.24
15442;BME280;7821;48.818;9.798;2022-09-20T09:00:52;75469.13;;;-140.16;67.56
15442;BME280;7821;48.818;9.798;2022-09-20T09:03:20;75475.03;;;-140.16;63.48
15442;BME280;7821;48.818;9.798;2022-09-20T09:05:51;75492.78;;;-140.16;67.22
15442;BME280;7821;48.818;9.798;2022-09-20T09:08:25;75534.19;;;-140.16;65.21
15442;BME280;7821;48.818;9.798;2022-09-20T09:10:54;75536.16;;;-140.16;69.14
15442;BME280;7821;48.818;9.798;2022-09-20T09:13:31;75573.63;;;-140.16;66.15
15442;BME280;7821;48.818;9.798;2022-09-20T09:16:00;75599.25;;;-140.16;64.35
15442;BME280;7821;48.818;9.798;2022-09-20T09:18:30;75611.09;;;-140.16;67.56
15442;BME280;7821;48.818;9.798;2022-09-20T09:20:58;75622.94;;;-140.16;68.41
15442;BME280;7821;48.818;9.798;2022-09-20T09:23:31;75609.13;;;-140.16;70.60
15442;BME280;7821;48.818;9.798;2022-09-20T09:26:03;75579.56;;;-140.16;68.79
15442;BME280;7821;48.818;9.798;2022-09-20T09:28:30;75559.84;;;-140.16;67.77
15442;BME280;7821;48.818;9.798;2022-09-20T09:31:12;75516.44;;;-140.16;66.19
15442;BME280;7821;48.818;9.798;2022-09-20T09:33:42;75475.03;;;-140.16;64.28
15442;BME280;7821;48.818;9.798;2022-09-20T09:36:12;75441.53;;;-140.16;59.42
15442;BME280;7821;48.818;9.798;2022-09-20T09:38:41;75409.97;;;-140.16;56.39
15442;BME280;7821;48.818;9.798;2022-09-20T09:41:21;75394.19;;;-140.16;55.81
15442;BME280;7821;48.818;9.798;2022-09-20T09:43:58;75441.53;;;-140.16;57.24
15442;BME280;7821;48.818;9.798;2022-09-20T09:46:25;75471.09;;;-140.16;60.74
15442;BME280;7821;48.818;9.798;2022-09-20T09:49:12;75480.97;;;-140.16;55.67
15442;BME280;7821;48.818;9.798;2022-09-20T09:51:41;75449.41;;;-140.16;60.90
15442;BME280;7821;48.818;9.798;2022-09-20T09:54:35;75394.19;;;-140.16;55.97
15442;BME280;7821;48.818;9.798;2022-09-20T10:07:48;75394.19;;;-140.16;49.07
15442;BME280;7821;48.818;9.798;2022-09-20T10:10:34;75435.59;;;-140.16;54.70
15442;BME280;7821;48.818;9.798;2022-09-20T10:15:54;75404.06;;;-140.16;55.71
15442;BME280;7821;48.818;9.798;2022-09-20T10:23:48;75402.09;;;-140.16;54.82
15442;BME280;7821;48.818;9.798;2022-09-20T10:39:57;75520.41;;;-140.16;60.74
15442;BME280;7821;48.818;9.798;2022-09-20T10:42:48;75528.28;;;-140.16;61.41
15442;BME280;7821;48.818;9.798;2022-09-20T10:48:40;75540.13;;;-140.16;61.29
15442;BME280;7821;48.818;9.798;2022-09-20T10:53:42;75518.41;;;-140.16;61.93
15442;BME280;7821;48.818;9.798;2022-09-20T10:56:32;75516.44;;;-140.16;60.47
15442;BME280;7821;48.818;9.798;2022-09-20T11:02:17;75506.59;;;-140.16;57.56
15442;BME280;7821;48.818;9.798;2022-09-20T11:09:18;75526.31;;;-140.16;60.65
15442;BME280;7821;48.818;9.798;2022-09-20T11:11:46;75546.03;;;-140.16;63.14
15442;BME280;7821;48.818;9.798;2022-09-20T11:14:16;75548.00;;;-140.16;63.31
15442;BME280;7821;48.818;9.798;2022-09-20T11:16:49;75557.84;;;-140.16;62.32
15442;BME280;7821;48.818;9.798;2022-09-20T11:22:18;75512.50;;;-140.16;62.79
15442;BME280;7821;48.818;9.798;2022-09-20T11:24:39;75433.63;;;-140.16;60.46
15442;BME280;7821;48.818;9.798;2022-09-20T11:27:22;75374.50;;;-140.16;56.57
15442;BME280;7821;48.818;9.798;2022-09-20T11:29:57;75329.13;;;-140.16;50.28
15442;BME280;7821;48.818;9.798;2022-09-20T11:32:38;75287.72;;;-140.16;47.09
15442;BME280;7821;48.818;9.798;2022-09-20T11:37:41;75206.91;;;-140.16;45.08
15442;BME280;7821;48.818;9.798;2022-09-20T11:40:21;75199.00;;;-140.16;46.81
15442;BME280;7821;48.818;9.798;2022-09-20T11:42:50;75167.47;;;-140.16;46.43
15442;BME280;7821;48.818;9.798;2022-09-20T11:45:18;75157.59;;;-140.16;45.07
15442;BME280;7821;48.818;9.798;2022-09-20T11:47:50;75165.50;;;-140.16;42.52
15442;BME280;7821;48.818;9.798;2022-09-20T11:58:12;75039.31;;;-140.16;37.46
15442;BME280;7821;48.818;9.798;2022-09-20T12:00:42;75003.81;;;-140.16;39.76
15442;BME280;7821;48.818;9.798;2022-09-20T12:03:24;75027.47;;;-140.16;38.18
15442;BME280;7821;48.818;9.798;2022-09-20T12:05:55;75106.34;;;-140.16;39.55
15442;BME280;7821;48.818;9.798;2022-09-20T12:08:29;75232.53;;;-140.16;44.12
15442;BME280;7821;48.818;9.798;2022-09-20T12:11:02;75287.72;;;-140.16;47.32
15442;BME280;7821;48.818;9.798;2022-09-20T12:13:30;75307.44;;;-140.16;47.36
15442;BME280;7821;48.818;9.798;2022-09-20T12:15:58;75319.28;;;-140.16;48.75
15442;BME280;7821;48.818;9.798;2022-09-20T12:20:59;75329.13;;;-140.16;44.94
15442;BME280;7821;48.818;9.798;2022-09-20T12:28:54;75157.59;;;-140.16;40.99
15442;BME280;7821;48.818;9.798;2022-09-20T12:36:32;75256.19;;;-140.16;45.59
15442;BME280;7821;48.818;9.798;2022-09-20T12:39:05;75283.78;;;-140.16;46.74
15442;BME280;7821;48.818;9.798;2022-09-20T12:41:47;75246.31;;;-140.16;46.54
15442;BME280;7821;48.818;9.798;2022-09-20T12:46:58;75256.19;;;-140.16;48.16
15442;BME280;7821;48.818;9.798;2022-09-20T12:49:30;75273.94;;;-140.16;46.91
15442;BME280;7821;48.818;9.798;2022-09-20T12:55:12;75167.47;;;-140.16;48.59
15442;BME280;7821;48.818;9.798;2022-09-20T12:58:33;75074.81;;;-140.16;43.21
15442;BME280;7821;48.818;9.798;2022-09-20T13:05:41;75098.47;;;-140.16;44.07
15442;BME280;7821;48.818;9.798;2022-09-20T13:10:40;75122.13;;;-140.16;46.47
15442;BME280;7821;48.818;9.798;2022-09-20T13:13:11;75139.88;;;-140.16;45.32
15442;BME280;7821;48.818;9.798;2022-09-20T13:15:43;75147.75;;;-140.16;45.23
15442;BME280;7821;48.818;9.798;2022-09-20T13:18:13;75191.13;;;-140.16;45.79
15442;BME280;7821;48.818;9.798;2022-09-20T13:20:40;75195.06;;;-140.16;47.79
15442;BME280;7821;48.818;9.798;2022-09-20T13:23:08;75197.03;;;-140.16;49.12
15442;BME280;7821;48.818;9.798;2022-09-20T13:25:42;75183.25;;;-140.16;43.98
15442;BME280;7821;48.818;9.798;2022-09-20T13:28:27;75145.78;;;-140.16;42.74
15442;BME280;7821;48.818;9.798;2022-09-20T13:31:17;75128.03;;;-140.16;41.19
15442;BME280;7821;48.818;9.798;2022-09-20T13:33:47;75173.38;;;-140.16;44.97
15442;BME280;7821;48.818;9.798;2022-09-20T13:36:14;75157.59;;;-140.16;46.79
15442;BME280;7821;48.818;9.798;2022-09-20T13:38:42;75137.88;;;-140.16;47.24
15442;BME280;7821;48.818;9.798;2022-09-20T13:41:10;75175.34;;;-140.16;47.26
15442;BME280;7821;48.818;9.798;2022-09-20T13:43:38;75177.31;;;-140.16;48.35
15442;BME280;7821;48.818;9.798;2022-09-20T13:46:08;75200.97;;;-140.16;45.60
15442;BME280;7821;48.818;9.798;2022-09-20T13:48:34;75240.41;;;-140.16;48.28
15442;BME280;7821;48.818;9.798;2022-09-20T13:51:01;75281.81;;;-140.16;51.96
15442;BME280;7821;48.818;9.798;2022-09-20T13:53:28;75273.94;;;-140.16;48.82
15442;BME280;7821;48.818;9.798;2022-09-20T13:56:20;75262.09;;;-140.16;50.28
15442;BME280;7821;48.818;9.798;2022-09-20T13:58:48;75260.13;;;-140.16;49.82
15442;BME280;7821;48.818;9.798;2022-09-20T14:04:15;75293.66;;;-140.16;50.62
15442;BME280;7821;48.818;9.798;2022-09-20T14:06:42;75273.94;;;-140.16;50.06
15442;BME280;7821;48.818;9.798;2022-09-20T14:09:17;75268.03;;;-140.16;51.19
15442;BME280;7821;48.818;9.798;2022-09-20T14:11:44;75305.47;;;-140.16;48.65
15442;BME280;7821;48.818;9.798;2022-09-20T14:14:11;75327.16;;;-140.16;50.06
15442;BME280;7821;48.818;9.798;2022-09-20T14:16:42;75337.03;;;-140.16;51.45
15442;BME280;7821;48.818;9.798;2022-09-20T14:19:12;75339.00;;;-140.16;51.94
15442;BME280;7821;48.818;9.798;2022-09-20T14:21:40;75303.50;;;-140.16;52.53
15442;BME280;7821;48.818;9.798;2022-09-20T14:26:37;75266.03;;;-140.16;50.25
15442;BME280;7821;48.818;9.798;2022-09-20T14:31:50;75208.88;;;-140.16;50.78
15442;BME280;7821;48.818;9.798;2022-09-20T14:34:17;75173.38;;;-140.16;47.60
15442;BME280;7821;48.818;9.798;2022-09-20T14:36:43;75124.09;;;-140.16;44.63
15442;BME280;7821;48.818;9.798;2022-09-20T14:39:13;75078.75;;;-140.16;46.77
15442;BME280;7821;48.818;9.798;2022-09-20T14:41:41;75057.06;;;-140.16;41.86
15442;BME280;7821;48.818;9.798;2022-09-20T14:44:22;75078.75;;;-140.16;41.96
15442;BME280;7821;48.818;9.798;2022-09-20T14:46:51;75102.41;;;-140.16;42.77
15442;BME280;7821;48.818;9.798;2022-09-20T14:51:52;75139.88;;;-140.16;42.92
15442;BME280;7821;48.818;9.798;2022-09-20T14:54:23;75165.50;;;-140.16;42.31
15442;BME280;7821;48.818;9.798;2022-09-20T14:56:51;75189.16;;;-140.16;44.98
15442;BME280;7821;48.818;9.798;2022-09-20T15:02:08;75228.59;;;-140.16;47.71
15442;BME280;7821;48.818;9.798;2022-09-20T15:04:38;75256.19;;;-140.16;45.57
15442;BME280;7821;48.818;9.798;2022-09-20T15:07:06;75266.03;;;-140.16;45.49
15442;BME280;7821;48.818;9.798;2022-09-20T15:09:33;75315.34;;;-140.16;47.96
15442;BME280;7821;48.818;9.798;2022-09-20T15:12:11;75331.09;;;-140.16;50.96
15442;BME280;7821;48.818;9.798;2022-09-20T15:14:38;75346.88;;;-140.16;54.03
15442;BME280;7821;48.818;9.798;2022-09-20T15:17:08;75344.91;;;-140.16;50.96
15442;BME280;7821;48.818;9.798;2022-09-20T15:19:36;75339.00;;;-140.16;50.03
15442;BME280;7821;48.818;9.798;2022-09-20T15:22:02;75309.41;;;-140.16;50.81
15442;BME280;7821;48.818;9.798;2022-09-20T15:24:29;75321.25;;;-140.16;45.39
15442;BME280;7821;48.818;9.798;2022-09-20T15:26:55;75313.38;;;-140.16;44.87
15442;BME280;7821;48.818;9.798;2022-09-20T15:29:22;75309.41;;;-140.16;44.11
15442;BME280;7821;48.818;9.798;2022-09-20T15:31:48;75321.25;;;-140.16;45.04
15442;BME280;7821;48.818;9.798;2022-09-20T15:34:15;75327.16;;;-140.16;43.62
15442;BME280;7821;48.818;9.798;2022-09-20T15:36:41;75337.03;;;-140.16;45.35
15442;BME280;7821;48.818;9.798;2022-09-20T15:39:08;75301.53;;;-140.16;46.28
15442;BME280;7821;48.818;9.798;2022-09-20T15:41:34;75275.91;;;-140.16;44.67
15442;BME280;7821;48.818;9.798;2022-09-20T15:44:01;75238.44;;;-140.16;45.74
15442;BME280;7821;48.818;9.798;2022-09-20T15:46:28;75218.72;;;-140.16;44.17
15442;BME280;7821;48.818;9.798;2022-09-20T15:48:55;75210.84;;;-140.16;42.95
15442;BME280;7821;48.818;9.798;2022-09-20T15:51:21;75244.34;;;-140.16;44.10
15442;BME280;7821;48.818;9.798;2022-09-20T15:53:58;75268.03;;;-140.16;45.67
15442;BME280;7821;48.818;9.798;2022-09-20T15:56:29;75303.50;;;-140.16;46.56
15442;BME280;7821;48.818;9.798;2022-09-20T15:58:57;75323.22;;;-140.16;48.07
15442;BME280;7821;48.818;9.798;2022-09-20T16:01:27;75339.00;;;-140.16;49.39
15442;BME280;7821;48.818;9.798;2022-09-20T16:03:55;75352.78;;;-140.16;49.64
15442;BME280;7821;48.818;9.798;2022-09-20T16:06:22;75329.13;;;-140.16;51.67
15442;BME280;7821;48.818;9.798;2022-09-20T16:08:49;75358.72;;;-140.16;49.53
15442;BME280;7821;48.818;9.798;2022-09-20T16:11:17;75368.56;;;-140.16;49.94
15442;BME280;7821;48.818;9.798;2022-09-20T16:13:51;75358.72;;;-140.16;52.51
15442;BME280;7821;48.818;9.798;2022-09-20T16:16:18;75360.69;;;-140.16;51.07
15442;BME280;7821;48.818;9.798;2022-09-20T16:18:45;75366.59;;;-140.16;53.23
15442;BME280;7821;48.818;9.798;2022-09-20T16:21:30;75376.47;;;-140.16;53.67
15442;BME280;7821;48.818;9.798;2022-09-20T16:23:57;75388.28;;;-140.16;53.46
15442;BME280;7821;48.818;9.798;2022-09-20T16:26:25;75386.31;;;-140.16;54.61
15442;BME280;7821;48.818;9.798;2022-09-20T16:28:52;75413.91;;;-140.16;54.54
15442;BME280;7821;48.818;9.798;2022-09-20T16:33:51;75398.16;;;-140.16;55.14
15442;BME280;7821;48.818;9.798;2022-09-20T16:36:18;75406.03;;;-140.16;56.96
15442;BME280;7821;48.818;9.798;2022-09-20T16:38:44;75431.66;;;-140.16;56.26
15442;BME280;7821;48.818;9.798;2022-09-20T16:41:10;75451.38;;;-140.16;55.50
15442;BME280;7821;48.818;9.798;2022-09-20T16:43:37;75457.31;;;-140.16;56.49
15442;BME280;7821;48.818;9.798;2022-09-20T16:46:03;75463.22;;;-140.16;57.52
15442;BME280;7821;48.818;9.798;2022-09-20T16:48:30;75469.13;;;-140.16;57.55
15442;BME280;7821;48.818;9.798;2022-09-20T16:50:57;75492.78;;;-140.16;60.36
15442;BME280;7821;48.818;9.798;2022-09-20T16:53:27;75508.56;;;-140.16;59.55
15442;BME280;7821;48.818;9.798;2022-09-20T16:55:54;75520.41;;;-140.16;60.82
15442;BME280;7821;48.818;9.798;2022-09-20T16:58:27;75528.28;;;-140.16;60.69
15442;BME280;7821;48.818;9.798;2022-09-20T17:01:02;75557.84;;;-140.16;61.85
15442;BME280;7821;48.818;9.798;2022-09-20T17:03:29;75567.72;;;-140.16;61.40
15442;BME280;7821;48.818;9.798;2022-09-20T17:06:02;75583.50;;;-140.16;64.28
15442;BME280;7821;48.818;9.798;2022-09-20T17:08:30;75599.25;;;-140.16;65.56
15442;BME280;7821;48.818;9.798;2022-09-20T17:11:04;75613.06;;;-140.16;63.77
15442;BME280;7821;48.818;9.798;2022-09-20T17:13:31;75622.94;;;-140.16;64.78
15442;BME280;7821;48.818;9.798;2022-09-20T17:16:01;75634.75;;;-140.16;63.53
15442;BME280;7821;48.818;9.798;2022-09-20T17:18:27;75638.69;;;-140.16;61.89
15442;BME280;7821;48.818;9.798;2022-09-20T17:20:53;75660.41;;;-140.16;64.44
15442;BME280;7821;48.818;9.798;2022-09-20T17:23:20;75660.41;;;-140.16;62.89
15442;BME280;7821;48.818;9.798;2022-09-20T17:25:47;75674.19;;;-140.16;62.85
15442;BME280;7821;48.818;9.798;2022-09-20T17:28:13;75678.13;;;-140.16;61.31
15442;BME280;7821;48.818;9.798;2022-09-20T17:30:39;75693.91;;;-140.16;64.04
15442;BME280;7821;48.818;9.798;2022-09-20T17:33:06;75709.69;;;-140.16;64.61
15442;BME280;7821;48.818;9.798;2022-09-20T17:35:32;75719.56;;;-140.16;62.80
15442;BME280;7821;48.818;9.798;2022-09-20T17:37:59;75731.38;;;-140.16;65.02
15442;BME280;7821;48.818;9.798;2022-09-20T17:40:25;75745.19;;;-140.16;66.36
15442;BME280;7821;48.818;9.798;2022-09-20T17:42:51;75747.16;;;-140.16;65.52